sensor_id;sensor_type;location;lat;lon;timestamp;temperature;humidity
5136;DHT22;2586;48.710;9.202;2022-09-09T00:02:19;13.30;99.90
5136;DHT22;2586;48.710;9.202;2022-09-09T00:05:17;13.20;1.00
5136;DHT22;2586;48.710;9.202;2022-09-09T00:07:51;13.20;1.00
5136;DHT22;2586;48.710;9.202;2022-09-09T00:10:29;13.10;99.90
5136;DHT22;2586;48.710;9.202;2022-09-09T00:13:15;13.10;99.90
5136;DHT22;2586;48.710;9.202;2022-09-09T00:19:00;13.00;65.80
5136;DHT22;2586;48.710;9.202;2022-09-09T00:21:06;13.10;1.00
5136;DHT22;2586;48.710;9.202;2022-09-09T00:23:37;13.10;1.00
5136;DHT22;2586;48.710;9.202;2022-09-09T00:26:35;13.20;99.90
5136;DHT22;2586;48.710;9.202;2022-09-09T00:29:29;13.00;99.90
5136;DHT22;2586;48.710;9.202;2022-09-09T00:32:05;13.00;99.90
5136;DHT22;2586;48.710;9.202;2022-09-09T00:34:36;13.10;99.90
5136;DHT22;2586;48.710;9.202;2022-09-09T00:37:04;13.10;99.90
5136;DHT22;2586;48.710;9.202;2022-09-09T00:39:45;13.20;1.00
5136;DHT22;2586;48.710;9.202;2022-09-09T00:48:11;13.20;99.90
5136;DHT22;2586;48.710;9.202;2022-09-09T00:50:45;13.30;99.90
5136;DHT22;2586;48.710;9.202;2022-09-09T00:56:21;13.30;99.90
5136;DHT22;2586;48.710;9.202;2022-09-09T00:59:03;13.40;99.90
5136;DHT22;2586;48.710;9.202;2022-09-09T01:01:32;13.40;99.90
5136;DHT22;2586;48.710;9.202;2022-09-09T01:03:57;13.50;1.00
5136;DHT22;2586;48.710;9.202;2022-09-09T01:06:35;13.60;99.90
5136;DHT22;2586;48.710;9.202;2022-09-09T01:14:53;13.80;99.90
5136;DHT22;2586;48.710;9.202;2022-09-09T01:17:27;13.90;1.00
5136;DHT22;2586;48.710;9.202;2022-09-09T01:20:15;13.90;99.90
5136;DHT22;2586;48.710;9.202;2022-09-09T01:28:34;13.70;99.90
5136;DHT22;2586;48.710;9.202;2022-09-09T01:31:04;13.50;1.00
5136;DHT22;2586;48.710;9.202;2022-09-09T01:33:31;13.50;99.90
5136;DHT22;2586;48.710;9.202;2022-09-09T01:38:23;13.40;1.00
5136;DHT22;2586;48.710;9.202;2022-09-09T01:40:51;13.50;99.90
5136;DHT22;2586;48.710;9.202;2022-09-09T01:43:20;13.60;1.00
5136;DHT22;2586;48.710;9.202;2022-09-09T01:45:49;13.60;1.00
5136;DHT22;2586;48.710;9.202;2022-09-09T01:48:17;13.60;1.00
5136;DHT22;2586;48.710;9.202;2022-09-09T01:50:43;13.80;1.00
5136;DHT22;2586;48.710;9.202;2022-09-09T01:53:09;13.70;99.90
5136;DHT22;2586;48.710;9.202;2022-09-09T01:55:40;13.80;99.90
5136;DHT22;2586;48.710;9.202;2022-09-09T01:58:32;13.90;1.00
5136;DHT22;2586;48.710;9.202;2022-09-09T02:01:17;13.80;99.90
5136;DHT22;2586;48.710;9.202;2022-09-09T02:03:52;13.70;1.00
5136;DHT22;2586;48.710;9.202;2022-09-09T02:06:35;13.60;1.00
5136;DHT22;2586;48.710;9.202;2022-09-09T02:09:05;13.40;99.90
5136;DHT22;2586;48.710;9.202;2022-09-09T02:11:31;13.30;99.90
5136;DHT22;2586;48.710;9.202;2022-09-09T02:14:22;13.30;1.00
5136;DHT22;2586;48.710;9.202;2022-09-09T02:16:56;13.30;1.00
5136;DHT22;2586;48.710;9.202;2022-09-09T02:19:37;13.30;99.90
5136;DHT22;2586;48.710;9.202;2022-09-09T02:22:04;13.30;21.50
5136;DHT22;2586;48.710;9.202;2022-09-09T02:24:33;13.40;99.90
5136;DHT22;2586;48.710;9.202;2022-09-09T02:27:03;13.40;1.20
5136;DHT22;2586;48.710;9.202;2022-09-09T02:29:41;13.50;1.00
5136;DHT22;2586;48.710;9.202;2022-09-09T02:32:11;13.50;1.00
5136;DHT22;2586;48.710;9.202;2022-09-09T02:34:42;13.50;1.00
5136;DHT22;2586;48.710;9.202;2022-09-09T02:37:09;13.50;1.00
5136;DHT22;2586;48.710;9.202;2022-09-09T02:39:35;13.60;99.90
5136;DHT22;2586;48.710;9.202;2022-09-09T02:42:01;13.50;1.00
5136;DHT22;2586;48.710;9.202;2022-09-09T02:44:29;13.40;65.90
5136;DHT22;2586;48.710;9.202;2022-09-09T02:50:05;13.40;1.00
5136;DHT22;2586;48.710;9.202;2022-09-09T02:53:21;13.30;99.90
5136;DHT22;2586;48.710;9.202;2022-09-09T02:58:00;13.40;99.90
5136;DHT22;2586;48.710;9.202;2022-09-09T03:00:28;13.40;99.90
5136;DHT22;2586;48.710;9.202;2022-09-09T03:02:54;13.60;1.00
5136;DHT22;2586;48.710;9.202;2022-09-09T03:05:20;13.60;1.00
5136;DHT22;2586;48.710;9.202;2022-09-09T03:07:46;13.70;1.00
5136;DHT22;2586;48.710;9.202;2022-09-09T03:10:12;13.80;1.00
5136;DHT22;2586;48.710;9.202;2022-09-09T03:12:38;13.80;99.90
5136;DHT22;2586;48.710;9.202;2022-09-09T03:15:05;13.70;98.60
5136;DHT22;2586;48.710;9.202;2022-09-09T03:17:31;13.70;1.00
5136;DHT22;2586;48.710;9.202;2022-09-09T03:19:56;13.60;1.00
5136;DHT22;2586;48.710;9.202;2022-09-09T03:22:24;13.60;1.00
5136;DHT22;2586;48.710;9.202;2022-09-09T03:24:51;13.50;99.90
5136;DHT22;2586;48.710;9.202;2022-09-09T03:27:17;13.40;99.90
5136;DHT22;2586;48.710;9.202;2022-09-09T03:29:43;13.30;1.00
5136;DHT22;2586;48.710;9.202;2022-09-09T03:32:18;13.20;1.00
5136;DHT22;2586;48.710;9.202;2022-09-09T03:34:44;13.30;99.90
5136;DHT22;2586;48.710;9.202;2022-09-09T03:37:10;13.10;1.00
5136;DHT22;2586;48.710;9.202;2022-09-09T03:39:36;13.20;1.00
5136;DHT22;2586;48.710;9.202;2022-09-09T03:42:01;13.20;1.00
5136;DHT22;2586;48.710;9.202;2022-09-09T03:44:31;13.10;1.00
5136;DHT22;2586;48.710;9.202;2022-09-09T03:46:57;13.20;1.00
5136;DHT22;2586;48.710;9.202;2022-09-09T03:49:25;13.20;99.90
5136;DHT22;2586;48.710;9.202;2022-09-09T03:51:52;13.20;99.90
5136;DHT22;2586;48.710;9.202;2022-09-09T03:54:18;13.10;99.90
5136;DHT22;2586;48.710;9.202;2022-09-09T03:56:43;13.10;99.90
5136;DHT22;2586;48.710;9.202;2022-09-09T03:59:09;13.20;99.90
5136;DHT22;2586;48.710;9.202;2022-09-09T04:01:35;13.20;99.90
5136;DHT22;2586;48.710;9.202;2022-09-09T04:04:00;13.30;56.70
5136;DHT22;2586;48.710;9.202;2022-09-09T04:06:27;13.40;1.00
5136;DHT22;2586;48.710;9.202;2022-09-09T04:08:53;13.40;1.00
5136;DHT22;2586;48.710;9.202;2022-09-09T04:11:20;13.40;99.90
5136;DHT22;2586;48.710;9.202;2022-09-09T04:13:45;13.30;99.90
5136;DHT22;2586;48.710;9.202;2022-09-09T04:16:11;13.30;99.90
5136;DHT22;2586;48.710;9.202;2022-09-09T04:18:38;13.20;99.90
5136;DHT22;2586;48.710;9.202;2022-09-09T04:21:04;13.30;99.90
5136;DHT22;2586;48.710;9.202;2022-09-09T04:23:32;13.10;1.00
5136;DHT22;2586;48.710;9.202;2022-09-09T04:26:00;13.20;1.00
5136;DHT22;2586;48.710;9.202;2022-09-09T04:28:29;13.20;1.00
5136;DHT22;2586;48.710;9.202;2022-09-09T04:30:55;13.20;1.00
5136;DHT22;2586;48.710;9.202;2022-09-09T04:33:23;13.10;99.90
5136;DHT22;2586;48.710;9.202;2022-09-09T04:35:52;13.20;1.00
5136;DHT22;2586;48.710;9.202;2022-09-09T04:38:19;13.30;99.90
5136;DHT22;2586;48.710;9.202;2022-09-09T04:40:48;13.40;99.90
5136;DHT22;2586;48.710;9.202;2022-09-09T04:43:14;13.50;1.00
5136;DHT22;2586;48.710;9.202;2022-09-09T04:45:43;13.60;99.90
5136;DHT22;2586;48.710;9.202;2022-09-09T04:48:09;13.70;99.90
5136;DHT22;2586;48.710;9.202;2022-09-09T04:50:37;13.70;19.10
5136;DHT22;2586;48.710;9.202;2022-09-09T04:53:04;13.80;1.00
5136;DHT22;2586;48.710;9.202;2022-09-09T04:55:31;13.80;1.00
5136;DHT22;2586;48.710;9.202;2022-09-09T04:57:57;13.80;1.00
5136;DHT22;2586;48.710;9.202;2022-09-09T05:00:24;13.80;99.90
5136;DHT22;2586;48.710;9.202;2022-09-09T05:02:49;13.80;99.90
5136;DHT22;2586;48.710;9.202;2022-09-09T05:05:15;13.90;99.90
5136;DHT22;2586;48.710;9.202;2022-09-09T05:07:41;13.90;99.90
5136;DHT22;2586;48.710;9.202;2022-09-09T05:10:07;14.00;99.90
5136;DHT22;2586;48.710;9.202;2022-09-09T05:12:33;13.90;99.90
5136;DHT22;2586;48.710;9.202;2022-09-09T05:14:59;13.90;99.90
5136;DHT22;2586;48.710;9.202;2022-09-09T05:17:24;13.90;1.00
5136;DHT22;2586;48.710;9.202;2022-09-09T05:19:50;14.00;99.90
5136;DHT22;2586;48.710;9.202;2022-09-09T05:22:19;14.00;99.90
5136;DHT22;2586;48.710;9.202;2022-09-09T05:24:49;14.10;99.90
5136;DHT22;2586;48.710;9.202;2022-09-09T05:27:18;14.20;99.90
5136;DHT22;2586;48.710;9.202;2022-09-09T05:29:45;14.20;99.90
5136;DHT22;2586;48.710;9.202;2022-09-09T05:32:11;14.40;99.90
5136;DHT22;2586;48.710;9.202;2022-09-09T05:34:37;14.30;99.90
5136;DHT22;2586;48.710;9.202;2022-09-09T05:37:03;14.40;99.90
5136;DHT22;2586;48.710;9.202;2022-09-09T05:39:29;14.50;1.00
5136;DHT22;2586;48.710;9.202;2022-09-09T05:41:55;14.50;1.00
5136;DHT22;2586;48.710;9.202;2022-09-09T05:44:21;14.60;1.00
5136;DHT22;2586;48.710;9.202;2022-09-09T05:46:48;14.70;1.00
5136;DHT22;2586;48.710;9.202;2022-09-09T05:49:14;14.80;1.00
5136;DHT22;2586;48.710;9.202;2022-09-09T05:51:41;14.80;1.00
5136;DHT22;2586;48.710;9.202;2022-09-09T05:54:08;14.90;1.00
5136;DHT22;2586;48.710;9.202;2022-09-09T05:56:34;15.10;1.00
5136;DHT22;2586;48.710;9.202;2022-09-09T05:59:00;14.90;1.00
5136;DHT22;2586;48.710;9.202;2022-09-09T06:01:31;14.90;1.00
5136;DHT22;2586;48.710;9.202;2022-09-09T06:03:58;14.90;53.20
5136;DHT22;2586;48.710;9.202;2022-09-09T06:06:26;15.00;1.00
5136;DHT22;2586;48.710;9.202;2022-09-09T06:08:54;15.00;1.00
5136;DHT22;2586;48.710;9.202;2022-09-09T06:11:25;15.00;99.90
5136;DHT22;2586;48.710;9.202;2022-09-09T06:13:52;15.00;99.90
5136;DHT22;2586;48.710;9.202;2022-09-09T06:16:21;15.10;1.00
5136;DHT22;2586;48.710;9.202;2022-09-09T06:18:49;15.10;99.90
5136;DHT22;2586;48.710;9.202;2022-09-09T06:21:20;15.10;1.00
5136;DHT22;2586;48.710;9.202;2022-09-09T06:23:47;15.10;1.00
5136;DHT22;2586;48.710;9.202;2022-09-09T06:26:22;15.20;1.00
5136;DHT22;2586;48.710;9.202;2022-09-09T06:28:49;15.30;1.00
5136;DHT22;2586;48.710;9.202;2022-09-09T06:31:17;15.40;99.90
5136;DHT22;2586;48.710;9.202;2022-09-09T06:33:43;15.40;99.90
5136;DHT22;2586;48.710;9.202;2022-09-09T06:36:36;15.60;99.90
5136;DHT22;2586;48.710;9.202;2022-09-09T06:39:03;15.60;99.90
5136;DHT22;2586;48.710;9.202;2022-09-09T06:41:30;15.70;99.90
5136;DHT22;2586;48.710;9.202;2022-09-09T06:43:57;15.60;1.00
5136;DHT22;2586;48.710;9.202;2022-09-09T06:46:25;15.70;1.00
5136;DHT22;2586;48.710;9.202;2022-09-09T06:48:54;15.80;99.90
5136;DHT22;2586;48.710;9.202;2022-09-09T06:51:26;15.80;99.90
5136;DHT22;2586;48.710;9.202;2022-09-09T06:53:57;15.90;99.90
5136;DHT22;2586;48.710;9.202;2022-09-09T06:56:29;16.00;99.90
5136;DHT22;2586;48.710;9.202;2022-09-09T06:58:57;16.10;1.00
5136;DHT22;2586;48.710;9.202;2022-09-09T07:01:26;16.30;99.90
5136;DHT22;2586;48.710;9.202;2022-09-09T07:03:56;16.40;99.90
5136;DHT22;2586;48.710;9.202;2022-09-09T07:06:32;16.50;1.00
5136;DHT22;2586;48.710;9.202;2022-09-09T07:09:02;16.70;2.40
5136;DHT22;2586;48.710;9.202;2022-09-09T07:11:31;16.80;1.00
5136;DHT22;2586;48.710;9.202;2022-09-09T07:13:57;16.90;99.90
5136;DHT22;2586;48.710;9.202;2022-09-09T07:16:24;16.90;1.00
5136;DHT22;2586;48.710;9.202;2022-09-09T07:18:51;17.10;1.00
5136;DHT22;2586;48.710;9.202;2022-09-09T07:21:17;17.00;1.00
5136;DHT22;2586;48.710;9.202;2022-09-09T07:23:43;17.30;99.90
5136;DHT22;2586;48.710;9.202;2022-09-09T07:26:17;17.20;99.90
5136;DHT22;2586;48.710;9.202;2022-09-09T07:28:45;17.20;99.90
5136;DHT22;2586;48.710;9.202;2022-09-09T07:31:19;17.30;1.00
5136;DHT22;2586;48.710;9.202;2022-09-09T07:33:46;17.40;2.40
5136;DHT22;2586;48.710;9.202;2022-09-09T07:36:17;17.50;99.90
5136;DHT22;2586;48.710;9.202;2022-09-09T07:38:45;17.40;1.00
5136;DHT22;2586;48.710;9.202;2022-09-09T07:41:16;17.40;99.90
5136;DHT22;2586;48.710;9.202;2022-09-09T07:43:44;17.50;99.90
5136;DHT22;2586;48.710;9.202;2022-09-09T07:46:11;17.60;1.00
5136;DHT22;2586;48.710;9.202;2022-09-09T07:48:38;17.60;1.00
5136;DHT22;2586;48.710;9.202;2022-09-09T07:51:09;17.60;1.00
5136;DHT22;2586;48.710;9.202;2022-09-09T07:53:36;17.90;1.00
5136;DHT22;2586;48.710;9.202;2022-09-09T07:56:07;18.40;1.00
5136;DHT22;2586;48.710;9.202;2022-09-09T07:58:33;18.30;99.90
5136;DHT22;2586;48.710;9.202;2022-09-09T08:00:58;18.30;99.90
5136;DHT22;2586;48.710;9.202;2022-09-09T08:03:24;18.70;99.90
5136;DHT22;2586;48.710;9.202;2022-09-09T08:05:50;18.80;99.90
5136;DHT22;2586;48.710;9.202;2022-09-09T08:08:15;19.10;50.40
5136;DHT22;2586;48.710;9.202;2022-09-09T08:10:42;18.70;99.90
5136;DHT22;2586;48.710;9.202;2022-09-09T08:13:09;18.60;99.90
5136;DHT22;2586;48.710;9.202;2022-09-09T08:15:34;18.60;1.00
5136;DHT22;2586;48.710;9.202;2022-09-09T08:18:00;19.00;99.90
5136;DHT22;2586;48.710;9.202;2022-09-09T08:20:25;19.70;1.00
5136;DHT22;2586;48.710;9.202;2022-09-09T08:22:51;19.70;1.00
5136;DHT22;2586;48.710;9.202;2022-09-09T08:25:16;20.20;1.00
5136;DHT22;2586;48.710;9.202;2022-09-09T08:27:42;20.20;1.00
5136;DHT22;2586;48.710;9.202;2022-09-09T08:30:08;20.10;1.00
5136;DHT22;2586;48.710;9.202;2022-09-09T08:32:34;20.50;1.00
5136;DHT22;2586;48.710;9.202;2022-09-09T08:35:00;20.60;1.00
5136;DHT22;2586;48.710;9.202;2022-09-09T08:37:26;20.70;1.00
5136;DHT22;2586;48.710;9.202;2022-09-09T08:39:51;20.80;1.00
5136;DHT22;2586;48.710;9.202;2022-09-09T08:42:30;21.00;99.90
5136;DHT22;2586;48.710;9.202;2022-09-09T08:48:07;21.40;99.90
5136;DHT22;2586;48.710;9.202;2022-09-09T08:50:35;22.20;99.90
5136;DHT22;2586;48.710;9.202;2022-09-09T08:56:11;22.30;99.90
5136;DHT22;2586;48.710;9.202;2022-09-09T08:58:47;22.40;99.90
5136;DHT22;2586;48.710;9.202;2022-09-09T09:01:38;21.90;99.90
5136;DHT22;2586;48.710;9.202;2022-09-09T09:07:12;22.30;99.90
5136;DHT22;2586;48.710;9.202;2022-09-09T09:09:52;22.90;99.90
5136;DHT22;2586;48.710;9.202;2022-09-09T09:12:25;22.70;99.90
5136;DHT22;2586;48.710;9.202;2022-09-09T09:14:52;22.20;99.90
5136;DHT22;2586;48.710;9.202;2022-09-09T09:17:21;22.40;99.90
5136;DHT22;2586;48.710;9.202;2022-09-09T09:19:49;22.10;99.90
5136;DHT22;2586;48.710;9.202;2022-09-09T09:22:21;22.70;99.90
5136;DHT22;2586;48.710;9.202;2022-09-09T09:27:40;22.20;99.90
5136;DHT22;2586;48.710;9.202;2022-09-09T09:30:14;20.60;1.00
5136;DHT22;2586;48.710;9.202;2022-09-09T09:32:44;17.90;99.90
5136;DHT22;2586;48.710;9.202;2022-09-09T09:35:14;17.20;1.00
5136;DHT22;2586;48.710;9.202;2022-09-09T09:37:41;16.80;1.00
5136;DHT22;2586;48.710;9.202;2022-09-09T09:40:15;17.10;99.90
5136;DHT22;2586;48.710;9.202;2022-09-09T09:42:53;17.60;1.00
5136;DHT22;2586;48.710;9.202;2022-09-09T09:48:20;18.30;99.90
5136;DHT22;2586;48.710;9.202;2022-09-09T09:50:49;18.70;99.90
5136;DHT22;2586;48.710;9.202;2022-09-09T09:53:21;19.40;99.90
5136;DHT22;2586;48.710;9.202;2022-09-09T09:56:09;19.90;1.00
5136;DHT22;2586;48.710;9.202;2022-09-09T10:01:31;20.60;1.00
5136;DHT22;2586;48.710;9.202;2022-09-09T10:04:13;20.90;1.00
5136;DHT22;2586;48.710;9.202;2022-09-09T10:06:42;21.30;1.00
5136;DHT22;2586;48.710;9.202;2022-09-09T10:09:23;21.70;1.00
5136;DHT22;2586;48.710;9.202;2022-09-09T10:37:06;24.10;99.90
5136;DHT22;2586;48.710;9.202;2022-09-09T10:39:39;24.60;99.90
5136;DHT22;2586;48.710;9.202;2022-09-09T10:42:16;24.90;99.90
5136;DHT22;2586;48.710;9.202;2022-09-09T10:50:25;23.90;99.90
5136;DHT22;2586;48.710;9.202;2022-09-09T10:53:02;25.00;99.90
5136;DHT22;2586;48.710;9.202;2022-09-09T10:55:41;25.20;99.90
5136;DHT22;2586;48.710;9.202;2022-09-09T10:58:22;24.90;99.90
5136;DHT22;2586;48.710;9.202;2022-09-09T11:00:59;24.60;99.90
5136;DHT22;2586;48.710;9.202;2022-09-09T11:03:28;23.30;99.90
5136;DHT22;2586;48.710;9.202;2022-09-09T11:06:01;22.70;99.90
5136;DHT22;2586;48.710;9.202;2022-09-09T11:08:30;22.40;99.90
5136;DHT22;2586;48.710;9.202;2022-09-09T11:11:08;22.50;99.90
5136;DHT22;2586;48.710;9.202;2022-09-09T11:19:00;21.30;99.90
5136;DHT22;2586;48.710;9.202;2022-09-09T11:21:37;21.10;99.90
5136;DHT22;2586;48.710;9.202;2022-09-09T11:24:12;20.60;1.00
5136;DHT22;2586;48.710;9.202;2022-09-09T11:26:49;20.10;1.00
5136;DHT22;2586;48.710;9.202;2022-09-09T11:29:50;20.00;32.30
5136;DHT22;2586;48.710;9.202;2022-09-09T11:38:54;18.50;1.00
5136;DHT22;2586;48.710;9.202;2022-09-09T11:41:20;18.20;99.90
5136;DHT22;2586;48.710;9.202;2022-09-09T11:43:52;18.30;1.00
5136;DHT22;2586;48.710;9.202;2022-09-09T11:46:32;19.20;1.00
5136;DHT22;2586;48.710;9.202;2022-09-09T11:49:04;20.10;1.00
5136;DHT22;2586;48.710;9.202;2022-09-09T11:51:32;20.00;99.90
5136;DHT22;2586;48.710;9.202;2022-09-09T11:53:59;20.30;99.90
5136;DHT22;2586;48.710;9.202;2022-09-09T11:56:32;20.50;99.90
5136;DHT22;2586;48.710;9.202;2022-09-09T11:59:02;20.50;99.90
5136;DHT22;2586;48.710;9.202;2022-09-09T12:01:39;20.40;99.90
5136;DHT22;2586;48.710;9.202;2022-09-09T12:10:02;19.80;99.90
5136;DHT22;2586;48.710;9.202;2022-09-09T12:17:50;20.10;99.90
5136;DHT22;2586;48.710;9.202;2022-09-09T12:20:23;20.60;99.90
5136;DHT22;2586;48.710;9.202;2022-09-09T12:28:19;22.60;99.90
5136;DHT22;2586;48.710;9.202;2022-09-09T12:33:17;23.30;99.90
5136;DHT22;2586;48.710;9.202;2022-09-09T12:35:46;23.80;99.90
5136;DHT22;2586;48.710;9.202;2022-09-09T12:38:30;23.90;99.70
5136;DHT22;2586;48.710;9.202;2022-09-09T12:40:57;24.20;99.20
5136;DHT22;2586;48.710;9.202;2022-09-09T12:43:25;24.40;99.90
5136;DHT22;2586;48.710;9.202;2022-09-09T12:45:54;25.20;99.60
5136;DHT22;2586;48.710;9.202;2022-09-09T12:48:29;25.00;93.10
5136;DHT22;2586;48.710;9.202;2022-09-09T12:50:57;24.70;93.90
5136;DHT22;2586;48.710;9.202;2022-09-09T12:53:26;24.20;98.00
5136;DHT22;2586;48.710;9.202;2022-09-09T12:55:58;24.40;92.90
5136;DHT22;2586;48.710;9.202;2022-09-09T12:58:25;24.20;94.10
5136;DHT22;2586;48.710;9.202;2022-09-09T13:00:55;23.70;98.70
5136;DHT22;2586;48.710;9.202;2022-09-09T13:03:25;24.00;99.90
5136;DHT22;2586;48.710;9.202;2022-09-09T13:05:52;22.60;99.90
5136;DHT22;2586;48.710;9.202;2022-09-09T13:08:19;22.30;99.90
5136;DHT22;2586;48.710;9.202;2022-09-09T13:10:57;22.10;99.90
5136;DHT22;2586;48.710;9.202;2022-09-09T13:13:40;21.80;99.90
5136;DHT22;2586;48.710;9.202;2022-09-09T13:16:17;22.80;99.90
5136;DHT22;2586;48.710;9.202;2022-09-09T13:18:44;22.90;99.90
5136;DHT22;2586;48.710;9.202;2022-09-09T13:21:09;22.60;99.90
5136;DHT22;2586;48.710;9.202;2022-09-09T13:23:36;22.60;99.90
5136;DHT22;2586;48.710;9.202;2022-09-09T13:26:05;22.90;99.90
5136;DHT22;2586;48.710;9.202;2022-09-09T13:28:33;23.90;99.40
5136;DHT22;2586;48.710;9.202;2022-09-09T13:31:05;24.50;99.00
5136;DHT22;2586;48.710;9.202;2022-09-09T13:33:36;25.70;87.00
5136;DHT22;2586;48.710;9.202;2022-09-09T13:36:10;25.60;88.30
5136;DHT22;2586;48.710;9.202;2022-09-09T13:38:55;26.20;71.80
5136;DHT22;2586;48.710;9.202;2022-09-09T13:41:42;25.70;77.00
5136;DHT22;2586;48.710;9.202;2022-09-09T13:44:25;25.40;68.80
5136;DHT22;2586;48.710;9.202;2022-09-09T13:47:15;25.80;86.60
5136;DHT22;2586;48.710;9.202;2022-09-09T13:49:42;25.20;68.40
5136;DHT22;2586;48.710;9.202;2022-09-09T13:52:12;24.80;84.00
5136;DHT22;2586;48.710;9.202;2022-09-09T13:54:39;25.60;72.10
5136;DHT22;2586;48.710;9.202;2022-09-09T13:57:05;26.10;88.80
5136;DHT22;2586;48.710;9.202;2022-09-09T13:59:31;26.10;83.70
5136;DHT22;2586;48.710;9.202;2022-09-09T14:01:57;26.30;72.80
5136;DHT22;2586;48.710;9.202;2022-09-09T14:04:23;25.60;82.40
5136;DHT22;2586;48.710;9.202;2022-09-09T14:06:49;25.60;91.30
5136;DHT22;2586;48.710;9.202;2022-09-09T14:09:17;26.10;89.90
5136;DHT22;2586;48.710;9.202;2022-09-09T14:11:44;26.50;61.20
5136;DHT22;2586;48.710;9.202;2022-09-09T14:14:11;26.90;59.10
5136;DHT22;2586;48.710;9.202;2022-09-09T14:16:36;27.00;59.90
5136;DHT22;2586;48.710;9.202;2022-09-09T14:19:03;27.30;60.80
5136;DHT22;2586;48.710;9.202;2022-09-09T14:21:29;27.70;57.90
5136;DHT22;2586;48.710;9.202;2022-09-09T14:23:55;28.80;53.10
5136;DHT22;2586;48.710;9.202;2022-09-09T14:26:21;29.50;46.80
5136;DHT22;2586;48.710;9.202;2022-09-09T14:28:47;29.60;29.90
5136;DHT22;2586;48.710;9.202;2022-09-09T14:31:13;29.20;30.00
5136;DHT22;2586;48.710;9.202;2022-09-09T14:33:39;29.10;1.00
5136;DHT22;2586;48.710;9.202;2022-09-09T14:36:05;28.20;1.00
5136;DHT22;2586;48.710;9.202;2022-09-09T14:38:35;28.00;1.00
5136;DHT22;2586;48.710;9.202;2022-09-09T14:41:05;27.50;1.00
5136;DHT22;2586;48.710;9.202;2022-09-09T14:43:31;27.80;1.00
5136;DHT22;2586;48.710;9.202;2022-09-09T14:46:04;28.00;1.00
5136;DHT22;2586;48.710;9.202;2022-09-09T14:48:34;27.40;8.60
5136;DHT22;2586;48.710;9.202;2022-09-09T14:51:15;27.40;15.70
5136;DHT22;2586;48.710;9.202;2022-09-09T14:53:42;27.20;12.40
5136;DHT22;2586;48.710;9.202;2022-09-09T14:56:11;27.00;24.10
5136;DHT22;2586;48.710;9.202;2022-09-09T14:58:37;27.20;22.40
5136;DHT22;2586;48.710;9.202;2022-09-09T15:01:12;27.80;13.40
5136;DHT22;2586;48.710;9.202;2022-09-09T15:03:39;28.00;28.60
5136;DHT22;2586;48.710;9.202;2022-09-09T15:06:09;28.30;29.90
5136;DHT22;2586;48.710;9.202;2022-09-09T15:08:36;28.10;25.70
5136;DHT22;2586;48.710;9.202;2022-09-09T15:11:03;27.30;32.50
5136;DHT22;2586;48.710;9.202;2022-09-09T15:13:29;26.50;33.20
5136;DHT22;2586;48.710;9.202;2022-09-09T15:15:55;26.10;34.00
5136;DHT22;2586;48.710;9.202;2022-09-09T15:18:21;24.60;41.90
5136;DHT22;2586;48.710;9.202;2022-09-09T15:20:47;24.90;48.50
5136;DHT22;2586;48.710;9.202;2022-09-09T15:23:13;24.60;55.90
5136;DHT22;2586;48.710;9.202;2022-09-09T15:25:53;25.10;55.40
5136;DHT22;2586;48.710;9.202;2022-09-09T15:28:19;26.90;49.60
5136;DHT22;2586;48.710;9.202;2022-09-09T15:30:52;27.90;42.60
5136;DHT22;2586;48.710;9.202;2022-09-09T15:33:20;28.40;1.00
5136;DHT22;2586;48.710;9.202;2022-09-09T15:35:45;26.70;1.00
5136;DHT22;2586;48.710;9.202;2022-09-09T15:38:11;25.70;49.30
5136;DHT22;2586;48.710;9.202;2022-09-09T15:40:42;27.10;45.60
5136;DHT22;2586;48.710;9.202;2022-09-09T15:43:08;26.50;53.90
5136;DHT22;2586;48.710;9.202;2022-09-09T15:45:35;24.60;59.40
5136;DHT22;2586;48.710;9.202;2022-09-09T15:48:01;23.80;65.00
5136;DHT22;2586;48.710;9.202;2022-09-09T15:50:27;22.80;1.00
5136;DHT22;2586;48.710;9.202;2022-09-09T15:52:56;22.10;1.00
5136;DHT22;2586;48.710;9.202;2022-09-09T15:55:21;21.70;1.00
5136;DHT22;2586;48.710;9.202;2022-09-09T15:57:49;21.30;62.70
5136;DHT22;2586;48.710;9.202;2022-09-09T16:00:15;21.10;91.50
5136;DHT22;2586;48.710;9.202;2022-09-09T16:02:41;21.00;82.00
5136;DHT22;2586;48.710;9.202;2022-09-09T16:05:07;20.80;36.40
5136;DHT22;2586;48.710;9.202;2022-09-09T16:07:32;20.70;98.30
5136;DHT22;2586;48.710;9.202;2022-09-09T16:10:00;20.50;1.00
5136;DHT22;2586;48.710;9.202;2022-09-09T16:12:25;20.50;71.50
5136;DHT22;2586;48.710;9.202;2022-09-09T16:14:51;20.40;64.80
5136;DHT22;2586;48.710;9.202;2022-09-09T16:17:17;20.30;99.90
5136;DHT22;2586;48.710;9.202;2022-09-09T16:19:44;20.30;99.90
5136;DHT22;2586;48.710;9.202;2022-09-09T16:22:11;20.20;99.90
5136;DHT22;2586;48.710;9.202;2022-09-09T16:24:36;20.30;99.90
5136;DHT22;2586;48.710;9.202;2022-09-09T16:27:02;20.20;99.90
5136;DHT22;2586;48.710;9.202;2022-09-09T16:29:28;20.10;99.90
5136;DHT22;2586;48.710;9.202;2022-09-09T16:31:54;20.10;99.90
5136;DHT22;2586;48.710;9.202;2022-09-09T16:34:20;20.00;99.90
5136;DHT22;2586;48.710;9.202;2022-09-09T16:36:47;20.00;99.90
5136;DHT22;2586;48.710;9.202;2022-09-09T16:39:19;20.00;99.90
5136;DHT22;2586;48.710;9.202;2022-09-09T16:41:46;20.00;99.90
5136;DHT22;2586;48.710;9.202;2022-09-09T16:44:14;20.00;99.90
5136;DHT22;2586;48.710;9.202;2022-09-09T16:46:42;19.90;99.90
5136;DHT22;2586;48.710;9.202;2022-09-09T16:49:09;19.90;99.90
5136;DHT22;2586;48.710;9.202;2022-09-09T16:51:38;19.90;99.90
5136;DHT22;2586;48.710;9.202;2022-09-09T16:54:05;19.70;99.90
5136;DHT22;2586;48.710;9.202;2022-09-09T16:56:36;19.50;99.90
5136;DHT22;2586;48.710;9.202;2022-09-09T16:59:06;19.50;99.90
5136;DHT22;2586;48.710;9.202;2022-09-09T17:01:33;19.20;99.90
5136;DHT22;2586;48.710;9.202;2022-09-09T17:04:04;19.00;99.90
5136;DHT22;2586;48.710;9.202;2022-09-09T17:06:31;18.80;99.90
5136;DHT22;2586;48.710;9.202;2022-09-09T17:09:05;18.60;99.90
5136;DHT22;2586;48.710;9.202;2022-09-09T17:11:31;18.50;99.90
5136;DHT22;2586;48.710;9.202;2022-09-09T17:13:57;18.50;99.90
5136;DHT22;2586;48.710;9.202;2022-09-09T17:16:28;18.50;99.90
5136;DHT22;2586;48.710;9.202;2022-09-09T17:18:56;18.50;99.90
5136;DHT22;2586;48.710;9.202;2022-09-09T17:21:23;18.40;99.90
5136;DHT22;2586;48.710;9.202;2022-09-09T17:23:51;18.40;99.90
5136;DHT22;2586;48.710;9.202;2022-09-09T17:26:19;18.30;99.90
5136;DHT22;2586;48.710;9.202;2022-09-09T17:28:45;18.30;99.90
5136;DHT22;2586;48.710;9.202;2022-09-09T17:31:16;18.30;99.90
5136;DHT22;2586;48.710;9.202;2022-09-09T17:33:44;18.20;99.90
5136;DHT22;2586;48.710;9.202;2022-09-09T17:38:47;18.00;99.90
5136;DHT22;2586;48.710;9.202;2022-09-09T17:41:17;17.90;99.90
5136;DHT22;2586;48.710;9.202;2022-09-09T17:43:43;17.90;99.90
5136;DHT22;2586;48.710;9.202;2022-09-09T17:46:23;17.70;99.90
5136;DHT22;2586;48.710;9.202;2022-09-09T17:48:58;17.70;99.90
5136;DHT22;2586;48.710;9.202;2022-09-09T17:51:26;17.60;99.90
5136;DHT22;2586;48.710;9.202;2022-09-09T17:54:13;17.60;99.90
5136;DHT22;2586;48.710;9.202;2022-09-09T17:56:40;17.50;99.90
5136;DHT22;2586;48.710;9.202;2022-09-09T17:59:10;17.50;99.90
5136;DHT22;2586;48.710;9.202;2022-09-09T18:01:39;17.40;1.00
5136;DHT22;2586;48.710;9.202;2022-09-09T18:04:07;17.40;1.00
5136;DHT22;2586;48.710;9.202;2022-09-09T18:06:38;17.40;1.00
5136;DHT22;2586;48.710;9.202;2022-09-09T18:09:07;17.20;1.00
5136;DHT22;2586;48.710;9.202;2022-09-09T18:11:36;17.20;1.00
5136;DHT22;2586;48.710;9.202;2022-09-09T18:14:04;17.30;1.00
5136;DHT22;2586;48.710;9.202;2022-09-09T18:16:32;17.20;1.00
5136;DHT22;2586;48.710;9.202;2022-09-09T18:19:01;17.20;1.00